Terminal Aerodrome Forecast
Issued by NWS Twin Cities, MN

Home | Current Version | Previous Version | Graphics & Text | Print | Product List | Glossary On
Versions: 1 2 3 4 5 6 7 8 9 10 11 12 13 14 15 16 17 18
000
FTUS43 KMPX 241120
TAFSTC
TAF
KSTC 241120Z 2412/2512 12008KT 1 1/2SM BR OVC004
     FM241500 12010KT P6SM OVC008
     FM241800 13012G18KT P6SM SCT008 OVC015
     FM250200 14010KT P6SM VCTS SCT012 BKN025CB OVC050
      TEMPO 2502/2505 5SM +SHRA BKN050
     FM250600 15008KT 5SM -SHRA BR OVC025=

USA.gov is the U.S. government's official web portal to all federal, state and local government web resources and services.